Time;durP1;ratioP1;P1;durP2;ratioP2;P2;SDS_P1;SDS_P2;PMS_P1;PMS_P2;Temp;Humidity;BMP_temperature;BMP_pressure;BME280_temperature;BME280_humidity;BME280_pressure;Samples;Min_cycle;Max_cycle;Signal;HPM_P1;HPM_P2
2022/07/25 00:01:24;;;;;;;3.80;2.80;;;22.50;63.00;;;;;;5093926;28;20915;-47
2022/07/25 00:03:50;;;;;;;3.00;2.63;;;22.60;63.30;;;;;;5093920;28;20432;-47
2022/07/25 00:06:17;;;;;;;3.50;2.70;;;22.40;63.20;;;;;;5093951;28;20451;-47
2022/07/25 00:08:43;;;;;;;3.50;2.33;;;22.40;63.50;;;;;;5093465;28;20431;-47
2022/07/25 00:11:10;;;;;;;2.87;2.47;;;22.40;63.50;;;;;;5093897;28;20444;-47
2022/07/25 00:13:37;;;;;;;2.53;2.33;;;22.40;63.70;;;;;;5093733;28;20780;-47
2022/07/25 00:16:05;;;;;;;3.00;2.17;;;22.30;63.80;;;;;;5093728;28;20480;-47
2022/07/25 00:18:32;;;;;;;2.43;1.90;;;22.30;63.90;;;;;;5093410;28;20439;-47
2022/07/25 00:20:59;;;;;;;2.83;2.50;;;22.30;64.00;;;;;;5093577;28;20945;-47
2022/07/25 00:23:25;;;;;;;2.73;2.47;;;22.30;64.10;;;;;;5093477;28;20433;-47
2022/07/25 00:25:52;;;;;;;3.03;2.73;;;22.10;64.00;;;;;;5093249;28;20472;-47
2022/07/25 00:28:18;;;;;;;5.73;2.37;;;22.30;63.60;;;;;;5093552;28;20438;-47
2022/07/25 00:30:45;;;;;;;3.00;2.57;;;22.30;64.40;;;;;;5093147;28;20796;-48
2022/07/25 00:33:13;;;;;;;2.73;2.30;;;21.90;64.00;;;;;;5093612;28;20440;-47
2022/07/25 00:35:40;;;;;;;2.77;2.47;;;22.20;64.20;;;;;;5093030;28;21001;-48
2022/07/25 00:38:06;;;;;;;2.27;2.00;;;22.30;64.40;;;;;;5093316;28;20433;-47
2022/07/25 00:40:33;;;;;;;2.37;2.17;;;22.20;64.20;;;;;;5092961;28;20939;-47
2022/07/25 00:43:00;;;;;;;5.53;2.30;;;22.10;64.20;;;;;;5093221;28;20835;-47
2022/07/25 00:45:26;;;;;;;2.93;2.40;;;22.10;64.40;;;;;;5093208;28;20646;-47
2022/07/25 00:47:53;;;;;;;2.70;2.50;;;23.10;65.40;;;;;;5093112;28;20920;-47
2022/07/25 00:50:22;;;;;;;3.90;2.80;;;22.30;64.40;;;;;;5092609;28;20442;-47
2022/07/25 00:52:49;;;;;;;3.33;2.47;;;22.30;63.70;;;;;;5093137;28;20428;-47
2022/07/25 00:55:15;;;;;;;2.40;2.10;;;21.80;63.30;;;;;;5092906;28;20456;-46
2022/07/25 00:57:42;;;;;;;2.40;2.13;;;22.00;64.30;;;;;;5092567;28;20488;-47
2022/07/25 01:00:12;;;;;;;2.63;2.43;;;22.00;64.40;;;;;;5092513;28;20445;-47
2022/07/25 01:02:40;;;;;;;3.27;2.70;;;22.00;64.70;;;;;;5092722;28;20432;-46
2022/07/25 01:05:08;;;;;;;2.50;2.30;;;22.00;64.90;;;;;;5092978;28;20842;-47
2022/07/25 01:07:37;;;;;;;2.87;2.43;;;21.90;64.90;;;;;;5092662;28;20448;-46
2022/07/25 01:10:05;;;;;;;2.63;2.30;;;21.90;65.10;;;;;;5092289;28;20995;-46
2022/07/25 01:12:31;;;;;;;2.87;2.50;;;21.90;65.30;;;;;;5092581;28;20436;-46
2022/07/25 01:14:58;;;;;;;3.30;2.40;;;21.60;64.50;;;;;;5092568;28;20920;-47
2022/07/25 01:17:24;;;;;;;2.30;1.93;;;21.80;65.80;;;;;;5092339;28;20994;-46
2022/07/25 01:19:52;;;;;;;3.00;2.70;;;21.80;65.80;;;;;;5092011;28;20440;-46
2022/07/25 01:22:20;;;;;;;6.30;3.70;;;21.80;65.80;;;;;;5092393;28;20446;-47
2022/07/25 01:24:47;;;;;;;3.63;2.70;;;21.80;65.40;;;;;;5092308;28;20849;-47
2022/07/25 01:27:13;;;;;;;2.57;2.37;;;21.70;65.90;;;;;;5092419;28;20436;-47
2022/07/25 01:29:40;;;;;;;4.10;2.60;;;21.70;66.00;;;;;;5092078;28;20438;-46
2022/07/25 01:32:07;;;;;;;2.53;2.33;;;21.70;66.00;;;;;;5092251;28;20438;-46
2022/07/25 01:34:33;;;;;;;2.70;2.10;;;21.70;66.00;;;;;;5092173;28;20444;-45
2022/07/25 01:37:00;;;;;;;3.30;2.37;;;21.70;66.00;;;;;;5091990;28;20486;-47
2022/07/25 01:39:28;;;;;;;2.67;2.47;;;21.60;65.20;;;;;;5091819;28;20427;-47
2022/07/25 01:41:54;;;;;;;3.10;2.40;;;21.80;65.40;;;;;;5092109;28;20436;-46
2022/07/25 01:44:21;;;;;;;2.70;2.30;;;21.60;65.80;;;;;;5092012;28;20787;-46
2022/07/25 01:46:48;;;;;;;3.00;2.27;;;21.70;66.00;;;;;;5092049;28;20876;-46
2022/07/25 01:49:14;;;;;;;6.93;2.40;;;21.60;65.80;;;;;;5091710;28;20428;-46
2022/07/25 01:51:41;;;;;;;3.13;2.60;;;21.70;66.00;;;;;;5091882;28;20840;-46
2022/07/25 01:54:08;;;;;;;2.53;2.27;;;21.30;65.50;;;;;;5092100;28;20441;-46
2022/07/25 01:56:35;;;;;;;2.30;2.10;;;21.40;65.60;;;;;;5091727;28;20966;-46
2022/07/25 01:59:02;;;;;;;2.50;2.30;;;21.70;65.90;;;;;;5091349;28;20435;-46
2022/07/25 02:01:29;;;;;;;2.90;2.60;;;21.20;65.40;;;;;;5092102;28;20810;-46
2022/07/25 02:03:55;;;;;;;2.37;2.17;;;21.30;65.50;;;;;;5091827;28;20808;-47
2022/07/25 02:06:22;;;;;;;2.83;2.23;;;21.40;65.70;;;;;;5091847;28;20447;-46
2022/07/25 02:08:48;;;;;;;5.60;2.13;;;21.40;65.80;;;;;;5091126;28;20447;-46
2022/07/25 02:11:15;;;;;;;3.20;2.90;;;21.70;65.40;;;;;;5091862;28;20607;-46
2022/07/25 02:13:44;;;;;;;3.47;2.47;;;21.40;65.80;;;;;;5091599;28;20427;-46
2022/07/25 02:16:11;;;;;;;4.10;2.30;;;21.80;66.30;;;;;;5091708;28;21024;-46
2022/07/25 02:18:38;;;;;;;5.43;2.07;;;21.40;66.00;;;;;;5091313;28;20457;-46
2022/07/25 02:21:06;;;;;;;3.40;2.23;;;21.30;66.00;;;;;;5091614;28;20777;-46
2022/07/25 02:23:33;;;;;;;3.27;2.50;;;21.30;66.00;;;;;;5091740;28;20442;-46
2022/07/25 02:25:59;;;;;;;3.43;2.50;;;21.40;65.60;;;;;;5091430;28;20471;-47
2022/07/25 02:28:26;;;;;;;2.40;2.20;;;21.30;66.10;;;;;;5091129;28;20426;-46
2022/07/25 02:30:54;;;;;;;4.53;3.00;;;21.00;65.90;;;;;;5091610;28;20925;-46
2022/07/25 02:33:21;;;;;;;4.03;2.43;;;21.60;66.60;;;;;;5091548;28;20441;-46
2022/07/25 02:35:47;;;;;;;2.70;2.50;;;21.30;65.70;;;;;;5091332;28;20451;-46
2022/07/25 02:38:18;;;;;;;2.33;2.13;;;21.20;66.30;;;;;;5091564;28;20477;-47
2022/07/25 02:40:45;;;;;;;2.73;2.53;;;20.80;65.80;;;;;;5091100;28;20437;-47
2022/07/25 02:43:11;;;;;;;3.93;2.97;;;21.20;66.30;;;;;;5091538;28;20437;-46
2022/07/25 02:45:38;;;;;;;3.43;2.80;;;21.10;66.20;;;;;;5089938;28;20819;-47
2022/07/25 02:48:06;;;;;;;3.00;2.53;;;21.20;66.30;;;;;;5091283;28;20434;-46
2022/07/25 02:50:33;;;;;;;2.60;2.40;;;21.20;66.30;;;;;;5091226;28;20439;-47
2022/07/25 02:53:00;;;;;;;4.40;3.17;;;21.20;66.30;;;;;;5091319;28;20957;-47
2022/07/25 02:55:27;;;;;;;3.30;2.60;;;21.30;66.50;;;;;;5091303;28;20446;-47
2022/07/25 02:57:53;;;;;;;3.00;2.20;;;21.10;66.40;;;;;;5091117;28;20490;-46
2022/07/25 03:00:20;;;;;;;4.17;2.70;;;21.10;66.40;;;;;;5090914;28;20441;-46
2022/07/25 03:02:47;;;;;;;3.90;2.57;;;21.10;66.50;;;;;;5091080;28;20449;-47
2022/07/25 03:05:16;;;;;;;3.87;2.70;;;21.60;67.00;;;;;;5089853;28;20462;-46
2022/07/25 03:07:43;;;;;;;3.27;2.40;;;21.20;66.60;;;;;;5091091;28;20958;-46
2022/07/25 03:10:12;;;;;;;8.87;2.53;;;21.10;66.50;;;;;;5090919;28;20906;-46
2022/07/25 03:12:39;;;;;;;2.87;2.23;;;21.10;66.50;;;;;;5090975;28;20531;-47
2022/07/25 03:15:07;;;;;;;2.70;2.50;;;21.10;66.60;;;;;;5091017;28;20457;-46
2022/07/25 03:17:34;;;;;;;3.00;2.30;;;21.10;66.70;;;;;;5090963;28;20476;-46
2022/07/25 03:20:00;;;;;;;5.17;2.83;;;20.60;66.20;;;;;;5090716;28;20439;-46
2022/07/25 03:22:29;;;;;;;3.67;3.07;;;21.00;66.80;;;;;;5093489;28;20814;-46
2022/07/25 03:24:55;;;;;;;3.27;2.60;;;21.00;66.20;;;;;;5094464;28;20431;-46
2022/07/25 03:27:22;;;;;;;3.40;3.00;;;21.00;66.80;;;;;;5095107;28;20431;-47
2022/07/25 03:29:49;;;;;;;4.87;2.77;;;21.00;67.10;;;;;;5094065;28;20426;-47
2022/07/25 03:32:15;;;;;;;3.60;2.80;;;21.00;67.10;;;;;;5094584;28;20438;-47
2022/07/25 03:34:42;;;;;;;2.93;2.37;;;21.20;66.70;;;;;;5094443;28;20443;-46
2022/07/25 03:37:09;;;;;;;3.50;2.30;;;20.90;67.10;;;;;;5094402;28;20501;-47
2022/07/25 03:39:37;;;;;;;4.40;3.10;;;21.40;67.70;;;;;;5094098;28;20945;-47
2022/07/25 03:42:04;;;;;;;3.33;2.50;;;21.00;67.30;;;;;;5094429;28;20443;-47
2022/07/25 03:44:31;;;;;;;3.80;3.13;;;21.00;67.30;;;;;;5094316;28;20426;-46
2022/07/25 03:46:57;;;;;;;3.00;2.47;;;21.00;67.40;;;;;;5092992;28;20523;-47
2022/07/25 03:49:24;;;;;;;6.60;2.83;;;21.00;67.30;;;;;;5093558;28;20459;-47
2022/07/25 03:51:51;;;;;;;6.37;2.93;;;20.70;66.90;;;;;;5094239;28;20792;-47
2022/07/25 03:54:17;;;;;;;2.70;2.50;;;21.10;67.30;;;;;;5094115;28;20438;-46
2022/07/25 03:56:48;;;;;;;5.63;2.93;;;21.20;67.40;;;;;;5093900;28;20948;-46
2022/07/25 03:59:17;;;;;;;3.60;2.93;;;21.10;67.30;;;;;;5093822;28;20439;-49
2022/07/25 04:01:45;;;;;;;4.00;3.03;;;21.10;67.40;;;;;;5092907;28;20438;-46
2022/07/25 04:04:12;;;;;;;4.03;2.97;;;21.10;67.40;;;;;;5093801;28;20436;-46
2022/07/25 04:06:40;;;;;;;4.10;2.73;;;20.90;67.20;;;;;;5094057;28;20829;-46
2022/07/25 04:09:07;;;;;;;5.13;2.80;;;21.10;67.50;;;;;;5093439;28;20431;-47
2022/07/25 04:11:34;;;;;;;5.33;3.23;;;21.30;68.50;;;;;;5093770;28;20432;-45
2022/07/25 04:14:03;;;;;;;14.70;3.10;;;21.00;67.40;;;;;;5093769;28;20447;-47
2022/07/25 04:16:29;;;;;;;6.83;2.93;;;21.40;67.70;;;;;;5093348;28;20458;-46
2022/07/25 04:18:56;;;;;;;3.47;2.80;;;21.60;67.60;;;;;;5093285;28;20508;-47
2022/07/25 04:21:24;;;;;;;6.03;4.03;;;21.30;67.00;;;;;;5093695;28;20476;-47
2022/07/25 04:23:51;;;;;;;3.80;3.40;;;21.50;67.00;;;;;;5093696;28;20851;-47
2022/07/25 04:26:18;;;;;;;5.43;2.97;;;21.60;66.80;;;;;;5091799;28;20475;-47
2022/07/25 04:28:45;;;;;;;4.87;3.20;;;21.60;66.70;;;;;;5092943;28;20438;-46
2022/07/25 04:31:13;;;;;;;5.20;3.10;;;21.70;66.40;;;;;;5093691;28;20434;-48
2022/07/25 04:33:41;;;;;;;3.53;3.23;;;22.00;66.50;;;;;;5092957;28;20461;-47
2022/07/25 04:36:08;;;;;;;3.10;2.40;;;21.70;65.70;;;;;;5093307;28;20553;-47
2022/07/25 04:38:35;;;;;;;4.47;3.20;;;22.10;65.70;;;;;;5092833;28;20486;-46
2022/07/25 04:41:03;;;;;;;4.30;3.43;;;22.20;65.30;;;;;;5093182;28;20806;-46
2022/07/25 04:43:29;;;;;;;3.40;2.90;;;22.30;65.00;;;;;;5093205;28;20443;-46
2022/07/25 04:45:56;;;;;;;3.33;3.03;;;22.40;64.80;;;;;;5092825;28;20458;-47
2022/07/25 04:48:24;;;;;;;4.73;3.40;;;22.60;64.70;;;;;;5092793;28;20520;-47
2022/07/25 04:50:51;;;;;;;4.50;3.10;;;22.60;64.20;;;;;;5093023;28;20427;-47
2022/07/25 04:53:18;;;;;;;3.20;2.77;;;22.70;64.00;;;;;;5093066;28;20444;-47
2022/07/25 04:55:44;;;;;;;4.77;3.07;;;22.90;63.90;;;;;;5092751;28;20803;-47
2022/07/25 04:58:11;;;;;;;5.00;2.67;;;23.00;63.50;;;;;;5092653;28;20487;-47
2022/07/25 05:00:38;;;;;;;2.67;2.40;;;23.00;63.10;;;;;;5092403;28;20433;-47
2022/07/25 05:03:04;;;;;;;5.17;2.70;;;23.10;62.80;;;;;;5092863;28;20439;-47
2022/07/25 05:05:32;;;;;;;4.20;2.70;;;23.20;62.70;;;;;;5092570;28;20467;-46
2022/07/25 05:08:00;;;;;;;3.90;2.90;;;23.30;62.40;;;;;;5092725;28;20425;-47
2022/07/25 05:10:28;;;;;;;3.67;2.47;;;23.30;62.20;;;;;;5092143;28;20425;-46
2022/07/25 05:12:55;;;;;;;3.77;2.40;;;23.40;62.10;;;;;;5092541;28;20433;-46
2022/07/25 05:15:23;;;;;;;2.90;2.60;;;23.40;61.80;;;;;;5092434;28;20452;-46
2022/07/25 05:17:49;;;;;;;3.47;2.60;;;23.50;61.70;;;;;;5090689;28;20481;-45
2022/07/25 05:20:16;;;;;;;3.53;3.10;;;23.60;61.70;;;;;;5092152;28;20431;-47
2022/07/25 05:22:44;;;;;;;4.27;3.13;;;23.60;61.40;;;;;;5092333;28;20435;-47
2022/07/25 05:25:11;;;;;;;3.00;2.70;;;23.70;61.30;;;;;;5091676;28;20461;-48
2022/07/25 05:27:39;;;;;;;6.30;2.53;;;23.70;61.00;;;;;;5091640;28;20431;-46
2022/07/25 05:30:08;;;;;;;4.40;3.00;;;23.80;61.00;;;;;;5091644;28;20435;-47
2022/07/25 05:32:35;;;;;;;3.87;3.00;;;23.90;61.00;;;;;;5092069;28;20430;-48
2022/07/25 05:35:01;;;;;;;5.27;3.23;;;23.70;60.60;;;;;;5092151;28;20798;-47
2022/07/25 05:37:28;;;;;;;6.53;2.47;;;24.00;60.90;;;;;;5092064;28;20482;-46
2022/07/25 05:39:56;;;;;;;7.33;2.50;;;24.50;61.40;;;;;;5091695;28;20437;-47
2022/07/25 05:42:23;;;;;;;2.90;2.07;;;24.10;60.80;;;;;;5091666;28;20436;-47
2022/07/25 05:44:49;;;;;;;3.40;3.00;;;24.20;60.70;;;;;;5091220;28;20442;-47
2022/07/25 05:47:16;;;;;;;5.13;2.70;;;24.20;60.50;;;;;;5091745;28;20436;-47
2022/07/25 05:49:43;;;;;;;3.00;2.70;;;24.20;60.40;;;;;;5091464;28;20428;-48
2022/07/25 05:52:10;;;;;;;3.23;2.80;;;24.40;60.40;;;;;;5091566;28;20537;-47
2022/07/25 05:54:36;;;;;;;4.43;2.83;;;24.50;60.40;;;;;;5091374;28;20436;-47
2022/07/25 05:57:04;;;;;;;4.63;3.47;;;24.70;60.40;;;;;;5091431;28;20455;-47
2022/07/25 05:59:31;;;;;;;3.73;3.27;;;24.70;60.40;;;;;;5090971;28;20511;-47
2022/07/25 06:01:58;;;;;;;3.30;3.00;;;24.70;60.10;;;;;;5091801;28;20429;-47
2022/07/25 06:04:24;;;;;;;9.57;3.10;;;24.80;59.90;;;;;;5091743;28;20838;-47
2022/07/25 06:06:51;;;;;;;5.23;3.70;;;24.80;59.80;;;;;;5090924;28;20456;-46
2022/07/25 06:09:20;;;;;;;3.30;3.00;;;25.00;59.80;;;;;;5091372;28;20431;-47
2022/07/25 06:11:46;;;;;;;3.50;2.93;;;25.10;59.60;;;;;;5091577;28;20465;-47
2022/07/25 06:14:15;;;;;;;4.50;3.00;;;25.20;59.50;;;;;;5091550;28;20428;-46
2022/07/25 06:16:41;;;;;;;4.40;3.43;;;25.30;59.40;;;;;;5091036;28;20491;-48
2022/07/25 06:19:08;;;;;;;5.67;3.30;;;25.40;59.30;;;;;;5090923;28;21092;-48
2022/07/25 06:21:35;;;;;;;3.63;3.30;;;25.50;59.20;;;;;;5091076;28;20440;-47
2022/07/25 06:24:02;;;;;;;4.10;2.80;;;25.50;59.20;;;;;;5090009;28;20964;-47
2022/07/25 06:26:29;;;;;;;4.10;2.90;;;25.50;59.20;;;;;;5090750;28;20468;-46
2022/07/25 06:28:55;;;;;;;3.77;3.33;;;25.60;59.20;;;;;;5090619;28;20433;-47
2022/07/25 06:31:23;;;;;;;5.50;3.30;;;25.70;59.00;;;;;;5091377;28;20425;-48
2022/07/25 06:33:50;;;;;;;4.30;3.57;;;25.80;59.00;;;;;;5091049;28;20441;-49
2022/07/25 06:36:16;;;;;;;7.33;4.10;;;25.80;59.00;;;;;;5091289;28;20451;-47
2022/07/25 06:38:43;;;;;;;6.43;3.40;;;25.90;58.90;;;;;;5090921;28;20472;-48
2022/07/25 06:41:14;;;;;;;7.07;3.67;;;25.70;58.80;;;;;;5091471;28;20425;-47
2022/07/25 06:43:40;;;;;;;9.10;4.43;;;25.90;58.70;;;;;;5091321;28;20436;-48
2022/07/25 06:46:07;;;;;;;5.90;4.37;;;26.10;58.70;;;;;;5090039;28;20467;-48
2022/07/25 06:48:35;;;;;;;4.27;3.60;;;26.20;58.70;;;;;;5090587;28;20433;-47
2022/07/25 06:51:02;;;;;;;6.30;4.33;;;26.10;58.50;;;;;;5091078;28;20439;-48
2022/07/25 06:53:28;;;;;;;7.27;4.77;;;26.20;58.60;;;;;;5090716;28;20429;-48
2022/07/25 06:55:55;;;;;;;6.83;4.13;;;26.20;58.60;;;;;;5091444;28;20986;-48
2022/07/25 06:58:21;;;;;;;4.07;3.60;;;26.20;58.70;;;;;;5094693;28;20472;-48
2022/07/25 07:00:49;;;;;;;7.03;3.93;;;26.20;58.80;;;;;;5094610;28;20643;-48
2022/07/25 07:03:15;;;;;;;4.77;4.30;;;26.30;58.80;;;;;;5094747;28;20922;-48
2022/07/25 07:05:43;;;;;;;5.20;3.50;;;26.30;58.80;;;;;;5095130;28;20866;-48
2022/07/25 07:08:10;;;;;;;5.50;5.00;;;26.30;58.70;;;;;;5094411;28;20433;-48
2022/07/25 07:10:37;;;;;;;6.37;3.77;;;26.30;58.80;;;;;;5093663;28;20436;-48
2022/07/25 07:13:06;;;;;;;5.77;3.83;;;26.30;58.80;;;;;;5094285;28;20533;-48
2022/07/25 07:15:33;;;;;;;5.00;3.80;;;26.30;58.80;;;;;;5094141;28;20452;-48
2022/07/25 07:17:59;;;;;;;8.80;4.83;;;26.50;59.00;;;;;;5092426;28;20468;-49
2022/07/25 07:20:26;;;;;;;8.17;3.97;;;26.40;59.00;;;;;;5094164;28;20530;-48
2022/07/25 07:22:54;;;;;;;6.83;5.47;;;26.50;59.00;;;;;;5094294;28;20763;-47
2022/07/25 07:25:22;;;;;;;4.53;4.10;;;26.50;58.90;;;;;;5093673;28;20471;-48
2022/07/25 07:27:50;;;;;;;5.93;5.00;;;26.20;58.70;;;;;;5093521;28;20433;-48
2022/07/25 07:30:17;;;;;;;6.90;4.17;;;26.60;58.80;;;;;;5093653;28;20429;-48
2022/07/25 07:32:44;;;;;;;5.47;4.67;;;26.40;58.80;;;;;;5093891;28;20449;-48
2022/07/25 07:35:11;;;;;;;4.73;4.20;;;26.60;58.90;;;;;;5094164;28;20571;-48
2022/07/25 07:37:38;;;;;;;8.00;4.30;;;26.70;58.90;;;;;;5094104;28;20434;-48
2022/07/25 07:40:08;;;;;;;5.67;5.17;;;26.70;58.90;;;;;;5093617;28;20945;-48
2022/07/25 07:42:39;;;;;;;7.30;4.10;;;26.70;58.90;;;;;;5094239;28;20464;-49
2022/07/25 07:45:12;;;;;;;5.40;4.67;;;26.60;58.80;;;;;;5093837;28;20937;-49
2022/07/25 07:47:39;;;;;;;5.50;5.00;;;26.50;58.80;;;;;;5094030;28;20528;-49
2022/07/25 07:50:07;;;;;;;7.63;5.10;;;26.80;59.00;;;;;;5093792;28;20798;-49
2022/07/25 07:52:33;;;;;;;5.30;4.80;;;26.90;59.00;;;;;;5093937;28;20440;-48
2022/07/25 07:57:46;;;;;;;7.90;5.33;;;26.90;59.10;;;;;;5093489;28;20439;-48
2022/07/25 08:00:14;;;;;;;7.00;5.10;;;27.00;59.10;;;;;;5093290;28;20432;-48
2022/07/25 08:02:46;;;;;;;5.97;5.07;;;27.10;59.20;;;;;;5093637;28;20535;-49
2022/07/25 08:05:13;;;;;;;7.10;5.67;;;27.60;59.30;;;;;;5093806;28;20449;-49
2022/07/25 08:07:39;;;;;;;5.97;5.33;;;26.80;58.80;;;;;;5092939;28;20437;-48
2022/07/25 08:10:07;;;;;;;5.80;5.30;;;27.00;58.90;;;;;;5093169;28;20429;-48
2022/07/25 08:12:38;;;;;;;8.00;5.47;;;27.30;59.10;;;;;;5093492;28;20429;-49
2022/07/25 08:15:09;;;;;;;8.47;5.80;;;27.40;59.20;;;;;;5093430;28;20470;-49
2022/07/25 08:17:36;;;;;;;7.13;5.20;;;27.40;59.10;;;;;;5092820;28;21076;-48
2022/07/25 08:20:06;;;;;;;5.90;5.13;;;27.40;58.80;;;;;;5090218;28;20485;-49
2022/07/25 08:22:37;;;;;;;9.80;4.73;;;27.40;58.60;;;;;;5093451;28;20444;-48
2022/07/25 08:25:05;;;;;;;6.63;6.00;;;27.50;58.60;;;;;;5093407;28;20461;-48
2022/07/25 08:27:31;;;;;;;6.07;5.57;;;27.60;58.50;;;;;;5093187;28;20428;-48
2022/07/25 08:30:00;;;;;;;8.30;6.20;;;27.60;58.50;;;;;;5092866;28;20916;-49
2022/07/25 08:32:28;;;;;;;11.43;7.57;;;27.40;58.30;;;;;;5092338;28;20921;-48
2022/07/25 08:34:55;;;;;;;9.23;6.47;;;27.70;58.10;;;;;;5092565;28;20429;-48
2022/07/25 08:37:22;;;;;;;7.90;5.53;;;27.70;58.60;;;;;;5092660;28;20444;-49
2022/07/25 08:39:49;;;;;;;7.70;7.00;;;27.80;58.70;;;;;;5092599;28;20487;-48
2022/07/25 08:42:17;;;;;;;6.70;5.97;;;27.90;58.60;;;;;;5092423;28;20437;-48
2022/07/25 08:44:54;;;;;;;5.90;5.30;;;27.90;57.90;;;;;;5092630;28;20432;-48
2022/07/25 08:47:22;;;;;;;9.97;7.23;;;27.80;58.40;;;;;;5092887;28;20655;-48
2022/07/25 08:49:49;;;;;;;6.27;5.67;;;28.00;59.10;;;;;;5092317;28;20491;-48
2022/07/25 08:52:17;;;;;;;8.43;6.23;;;28.00;58.50;;;;;;5091976;28;20428;-48
2022/07/25 08:54:45;;;;;;;6.37;5.77;;;28.20;58.60;;;;;;5092110;28;20447;-47
2022/07/25 08:57:12;;;;;;;6.80;5.90;;;28.10;58.40;;;;;;5091700;28;20441;-48
2022/07/25 08:59:38;;;;;;;7.10;6.40;;;28.30;58.40;;;;;;5092059;28;20478;-48
2022/07/25 09:02:07;;;;;;;7.00;6.40;;;27.90;58.10;;;;;;5090713;28;20445;-48
2022/07/25 09:04:34;;;;;;;7.23;6.63;;;28.40;58.40;;;;;;5092366;28;20501;-48
2022/07/25 09:07:03;;;;;;;7.60;6.90;;;28.50;58.30;;;;;;5091939;28;20449;-48
2022/07/25 09:09:31;;;;;;;7.57;6.87;;;28.50;58.30;;;;;;5091637;28;20833;-48
2022/07/25 09:11:58;;;;;;;10.23;6.87;;;28.60;58.10;;;;;;5092114;28;20454;-48
2022/07/25 09:14:25;;;;;;;8.80;7.90;;;28.60;58.20;;;;;;5092327;28;20759;-48
2022/07/25 09:16:55;;;;;;;8.77;7.23;;;28.80;58.10;;;;;;5092555;28;20503;-48
2022/07/25 09:19:23;;;;;;;7.47;6.87;;;28.80;58.00;;;;;;5090997;28;20475;-48
2022/07/25 09:22:01;;;;;;;8.70;7.00;;;28.70;57.80;;;;;;5091872;28;20941;-47
2022/07/25 09:24:31;;;;;;;9.40;8.60;;;29.00;57.90;;;;;;5091720;28;20447;-49
2022/07/25 09:27:00;;;;;;;7.97;7.13;;;29.00;58.00;;;;;;5092092;28;20629;-47
2022/07/25 09:29:28;;;;;;;9.70;7.87;;;29.00;57.60;;;;;;5069308;28;20442;-48
2022/07/25 09:31:56;;;;;;;8.33;7.63;;;29.00;57.50;;;;;;5071907;28;20472;-47
2022/07/25 09:34:34;;;;;;;7.40;6.80;;;28.80;57.40;;;;;;5071300;28;20448;-47
2022/07/25 09:37:01;;;;;;;7.67;6.97;;;28.80;57.40;;;;;;5071464;28;20951;-48
2022/07/25 09:39:41;;;;;;;8.53;7.70;;;29.30;57.70;;;;;;5070620;28;20880;-47
2022/07/25 09:42:21;;;;;;;9.73;7.77;;;29.30;57.70;;;;;;5071477;28;20512;-48
2022/07/25 09:44:59;;;;;;;8.73;7.47;;;29.40;57.70;;;;;;5071375;28;20485;-47
2022/07/25 09:47:26;;;;;;;9.60;8.57;;;29.40;57.80;;;;;;5071566;28;20429;-47
2022/07/25 09:49:52;;;;;;;8.40;7.67;;;29.50;57.80;;;;;;5070865;28;20483;-47
2022/07/25 09:52:19;;;;;;;8.90;8.10;;;29.60;57.80;;;;;;5071152;28;20428;-47
2022/07/25 09:54:47;;;;;;;15.00;7.87;;;29.70;57.40;;;;;;5082003;28;20440;-47
2022/07/25 09:57:14;;;;;;;7.77;7.13;;;29.70;57.80;;;;;;5091426;28;20440;-47
2022/07/25 09:59:41;;;;;;;10.10;7.90;;;29.70;57.70;;;;;;5091059;28;20473;-47
2022/07/25 10:02:11;;;;;;;8.20;7.50;;;29.80;57.60;;;;;;5091791;28;20437;-47
2022/07/25 10:04:45;;;;;;;9.20;8.30;;;29.90;57.60;;;;;;5091507;28;20800;-46
2022/07/25 10:07:15;;;;;;;10.60;7.53;;;29.70;57.60;;;;;;5091401;28;20448;-47
2022/07/25 10:09:43;;;;;;;8.93;8.13;;;30.00;57.50;;;;;;5090988;28;20425;-46
2022/07/25 10:12:14;;;;;;;10.50;8.40;;;30.00;57.40;;;;;;5091377;28;20432;-47
2022/07/25 10:14:42;;;;;;;17.37;8.60;;;30.10;57.00;;;;;;5091486;28;20429;-47
2022/07/25 10:17:08;;;;;;;8.97;7.80;;;30.20;56.90;;;;;;5091073;28;20448;-47
2022/07/25 10:19:39;;;;;;;8.77;7.93;;;30.20;57.00;;;;;;5090418;28;20476;-47
2022/07/25 10:22:06;;;;;;;9.20;8.50;;;30.30;56.90;;;;;;5091440;28;20455;-47
2022/07/25 10:24:34;;;;;;;10.10;8.40;;;30.40;56.30;;;;;;5091559;28;20519;-47
2022/07/25 10:27:08;;;;;;;8.27;7.57;;;30.50;56.10;;;;;;5091219;28;20503;-47
2022/07/25 10:29:37;;;;;;;11.60;8.70;;;30.60;56.10;;;;;;5090647;28;20920;-47
2022/07/25 10:32:08;;;;;;;10.00;8.00;;;30.50;55.50;;;;;;5094867;28;20432;-48
2022/07/25 10:34:36;;;;;;;10.93;9.83;;;30.70;55.50;;;;;;5095585;28;20432;-46
2022/07/25 10:37:11;;;;;;;9.80;8.90;;;30.80;55.20;;;;;;5095278;28;20452;-48
2022/07/25 10:39:39;;;;;;;9.23;8.10;;;31.50;55.10;;;;;;5095075;28;20471;-48
2022/07/25 10:42:06;;;;;;;8.67;7.87;;;30.90;54.70;;;;;;5093280;28;20463;-48
2022/07/25 10:44:44;;;;;;;10.33;8.37;;;31.00;54.70;;;;;;5095080;28;20444;-47
2022/07/25 10:47:12;;;;;;;8.67;7.90;;;31.00;54.60;;;;;;5093592;28;20461;-46
2022/07/25 10:49:40;;;;;;;10.27;9.27;;;31.00;54.70;;;;;;5094337;28;20425;-47
2022/07/25 10:52:14;;;;;;;10.30;8.60;;;31.10;54.60;;;;;;5095008;28;20462;-46
2022/07/25 10:54:41;;;;;;;9.60;8.70;;;31.10;54.00;;;;;;5095015;28;20451;-46
2022/07/25 10:57:15;;;;;;;9.13;8.30;;;31.20;54.10;;;;;;5094733;28;20448;-47
2022/07/25 10:59:43;;;;;;;16.47;9.50;;;31.30;53.10;;;;;;5094899;28;20564;-47
2022/07/25 11:02:15;;;;;;;9.53;8.83;;;31.40;53.40;;;;;;5094610;28;20439;-46
2022/07/25 11:05:01;;;;;;;9.10;8.20;;;31.40;52.80;;;;;;5094744;28;20912;-47
2022/07/25 11:07:34;;;;;;;10.17;9.27;;;31.40;53.30;;;;;;5094470;28;20486;-47
2022/07/25 11:10:03;;;;;;;11.60;9.07;;;31.30;52.80;;;;;;5094424;28;20520;-47
2022/07/25 11:12:30;;;;;;;9.93;9.13;;;31.50;52.80;;;;;;5092834;28;20448;-46
2022/07/25 11:15:01;;;;;;;8.63;7.83;;;31.40;52.80;;;;;;5094462;28;20437;-47
2022/07/25 11:17:28;;;;;;;8.40;7.70;;;31.60;52.80;;;;;;5094244;28;20425;-47
2022/07/25 11:19:57;;;;;;;10.43;9.43;;;31.30;52.80;;;;;;5094056;28;20907;-47
2022/07/25 11:22:24;;;;;;;13.03;8.57;;;31.70;52.70;;;;;;5094285;28;20440;-47
2022/07/25 11:24:51;;;;;;;10.00;9.17;;;31.80;51.80;;;;;;5093843;28;20809;-46
2022/07/25 11:27:22;;;;;;;9.20;8.50;;;31.90;52.40;;;;;;5094137;28;20443;-46
2022/07/25 11:29:48;;;;;;;9.23;8.33;;;31.90;52.10;;;;;;5093776;28;20524;-46
2022/07/25 11:32:17;;;;;;;10.07;9.27;;;32.00;52.10;;;;;;5094052;28;20437;-47
2022/07/25 11:34:47;;;;;;;10.13;9.00;;;32.00;50.90;;;;;;5094144;28;20428;-48
2022/07/25 11:37:14;;;;;;;8.53;7.87;;;32.00;51.50;;;;;;5093733;28;20444;-48
2022/07/25 11:39:43;;;;;;;9.73;8.83;;;32.10;51.40;;;;;;5093725;28;20472;-47
2022/07/25 11:42:13;;;;;;;9.40;8.60;;;32.10;51.40;;;;;;5093194;28;20479;-47
2022/07/25 11:44:41;;;;;;;11.23;8.30;;;32.00;51.00;;;;;;5093833;28;20445;-48
2022/07/25 11:47:21;;;;;;;9.20;8.47;;;32.20;51.10;;;;;;5093520;28;20432;-47
2022/07/25 11:49:51;;;;;;;8.20;7.60;;;31.90;50.40;;;;;;5093505;28;20444;-47
2022/07/25 11:52:23;;;;;;;9.73;9.03;;;32.50;50.20;;;;;;5093367;28;20443;-47
2022/07/25 11:54:51;;;;;;;10.27;8.10;;;30.50;48.10;;;;;;5092979;28;20443;-47
2022/07/25 11:57:21;;;;;;;10.50;8.00;;;32.50;48.60;;;;;;5091890;28;20802;-46
2022/07/25 11:59:47;;;;;;;8.77;8.07;;;32.60;48.60;;;;;;5093315;28;20479;-46
2022/07/25 12:02:21;;;;;;;9.10;8.40;;;32.50;48.60;;;;;;5093279;28;20483;-47
2022/07/25 12:04:57;;;;;;;8.17;7.57;;;32.70;47.30;;;;;;5093304;28;20456;-48
2022/07/25 12:07:37;;;;;;;8.17;7.47;;;32.80;47.70;;;;;;5093115;28;20467;-46
2022/07/25 12:10:05;;;;;;;7.60;7.00;;;32.80;47.80;;;;;;5093316;28;20515;-47
2022/07/25 12:12:42;;;;;;;8.00;7.20;;;32.70;48.10;;;;;;5093252;28;20436;-47
2022/07/25 12:15:10;;;;;;;8.83;8.03;;;32.70;48.30;;;;;;5093489;28;20463;-49
2022/07/25 12:17:37;;;;;;;8.90;8.20;;;32.70;48.30;;;;;;5093209;28;20429;-48
2022/07/25 12:20:11;;;;;;;9.00;8.10;;;32.80;48.40;;;;;;5092676;28;21015;-48
2022/07/25 12:22:37;;;;;;;9.53;7.77;;;32.70;48.20;;;;;;5093307;28;20941;-47
2022/07/25 12:25:05;;;;;;;8.60;7.93;;;32.80;47.90;;;;;;5092877;28;20480;-48
2022/07/25 12:27:31;;;;;;;8.83;8.03;;;32.90;47.70;;;;;;5092504;28;20445;-48
2022/07/25 12:29:58;;;;;;;8.97;8.20;;;32.90;47.30;;;;;;5092138;28;20425;-48
2022/07/25 12:32:24;;;;;;;8.60;7.80;;;32.90;47.40;;;;;;5091294;28;20498;-48
2022/07/25 12:34:51;;;;;;;8.17;7.53;;;32.90;46.70;;;;;;5091350;28;20544;-48
2022/07/25 12:37:20;;;;;;;9.77;8.83;;;32.90;47.20;;;;;;5093211;28;20440;-48
2022/07/25 12:39:47;;;;;;;8.97;8.07;;;32.90;47.20;;;;;;5092381;28;20563;-48
2022/07/25 12:42:13;;;;;;;8.87;8.13;;;32.90;47.20;;;;;;5092658;28;20432;-48
2022/07/25 12:44:40;;;;;;;8.93;7.70;;;33.00;46.90;;;;;;5092792;28;20441;-48
2022/07/25 12:47:07;;;;;;;12.13;8.30;;;33.00;46.70;;;;;;5092414;28;20456;-47
2022/07/25 12:49:34;;;;;;;8.70;8.00;;;33.10;46.50;;;;;;5092691;28;20960;-47
2022/07/25 12:52:00;;;;;;;9.23;8.53;;;33.20;46.40;;;;;;5092642;28;20952;-47